Time;durP1;ratioP1;P1;durP2;ratioP2;P2;SDS_P1;SDS_P2;PMS_P1;PMS_P2;Temp;Humidity;BMP_temperature;BMP_pressure;BME280_temperature;BME280_humidity;BME280_pressure;Samples;Min_cycle;Max_cycle;Signal;HPM_P1;HPM_P2
2022/11/25 00:00:40;;;;;;;6.90;6.20;;;;;;;4.12;100.00;99909.69;10489112;28;20383;-71
2022/11/25 00:05:42;;;;;;;8.40;5.63;;;;;;;4.22;100.00;99905.28;10506715;28;20052;-70
2022/11/25 00:10:43;;;;;;;11.88;7.03;;;;;;;4.24;100.00;99901.78;10506642;28;20465;-71
2022/11/25 00:15:45;;;;;;;12.05;6.60;;;;;;;4.40;100.00;99907.72;10506609;28;20048;-71
2022/11/25 00:20:47;;;;;;;6.80;5.72;;;;;;;4.35;100.00;99903.44;10488161;28;20064;-70
2022/11/25 00:25:48;;;;;;;10.73;6.43;;;;;;;4.36;100.00;99906.03;10505826;28;20048;-71
2022/11/25 00:30:50;;;;;;;7.40;5.93;;;;;;;4.33;100.00;99913.00;10506203;28;20040;-71
2022/11/25 00:35:52;;;;;;;8.40;7.60;;;;;;;4.39;100.00;99910.34;10488192;28;20044;-70
2022/11/25 00:44:34;;;;;;;9.48;8.45;;;;;;;4.31;100.00;99913.00;10487640;28;20044;-71
2022/11/25 00:46:15;;;;;;;9.38;8.48;;;;;;;4.38;100.00;99917.28;10507156;28;20051;-71
2022/11/25 00:51:17;;;;;;;8.98;8.05;;;;;;;4.20;100.00;99914.81;10487481;28;20559;-71
2022/11/25 00:56:19;;;;;;;8.60;7.80;;;;;;;4.19;100.00;99910.50;10471654;22;20065;-73
2022/11/25 01:01:21;;;;;;;11.93;8.35;;;;;;;4.14;100.00;99917.47;10421786;28;20033;-73
2022/11/25 01:06:23;;;;;;;11.88;8.30;;;;;;;4.10;100.00;99918.38;10421137;28;20498;-73
2022/11/25 01:11:25;;;;;;;9.73;8.00;;;;;;;4.10;100.00;99913.19;10422035;28;20092;-73
2022/11/25 01:16:27;;;;;;;9.43;7.05;;;;;;;4.07;100.00;99911.44;10423547;28;20079;-72
2022/11/25 01:21:32;;;;;;;8.38;7.55;;;;;;;3.80;100.00;99913.38;10422631;28;20467;-73
2022/11/25 01:26:34;;;;;;;9.77;7.57;;;;;;;3.60;100.00;99915.22;10407403;28;20483;-73
2022/11/25 01:31:36;;;;;;;7.63;6.60;;;;;;;3.61;100.00;99918.69;10403914;28;20045;-73
2022/11/25 01:36:39;;;;;;;7.45;6.72;;;;;;;3.47;100.00;99909.22;10423451;28;20045;-73
2022/11/25 01:41:40;;;;;;;11.90;9.55;;;;;;;3.35;100.00;99911.03;10403818;28;20041;-73
2022/11/25 01:46:48;;;;;;;9.38;8.45;;;;;;;3.48;100.00;99912.69;10420617;28;20053;-72
2022/11/25 01:52:07;;;;;;;12.35;9.55;;;;;;;3.72;100.00;99906.50;10402500;28;20495;-73
2022/11/25 01:57:16;;;;;;;12.43;9.88;;;;;;;4.19;100.00;99902.69;10402977;28;20132;-73
2022/11/25 02:02:19;;;;;;;9.82;8.27;;;;;;;4.22;100.00;99913.94;10406213;28;20045;-73
2022/11/25 02:07:35;;;;;;;12.18;9.23;;;;;;;4.09;100.00;99919.25;10417535;28;20049;-73
2022/11/25 02:12:40;;;;;;;13.15;10.27;;;;;;;4.41;100.00;99909.44;10419340;28;20072;-73
2022/11/25 02:17:43;;;;;;;13.25;11.98;;;;;;;4.29;100.00;99915.63;10421448;28;20045;-73
2022/11/25 02:22:51;;;;;;;14.48;11.73;;;;;;;4.19;100.00;99907.91;10401425;28;20083;-73
2022/11/25 02:28:07;;;;;;;14.25;11.55;;;;;;;4.19;100.00;99908.75;10419552;28;20119;-73
2022/11/25 02:33:12;;;;;;;12.55;10.95;;;;;;;4.02;100.00;99906.28;10400985;28;20050;-73
2022/11/25 02:38:24;;;;;;;13.57;11.70;;;;;;;3.93;100.00;99908.09;10402566;28;20141;-73
2022/11/25 02:43:28;;;;;;;14.88;13.43;;;;;;;3.90;100.00;99897.72;10419569;28;20394;-73
2022/11/25 02:48:32;;;;;;;16.10;13.15;;;;;;;3.98;100.00;99908.91;10418866;28;20041;-73
2022/11/25 02:53:55;;;;;;;14.85;12.07;;;;;;;4.02;100.00;99908.88;10400945;28;20049;-73
2022/11/25 02:58:59;;;;;;;14.10;11.43;;;;;;;4.20;100.00;99904.41;10384096;28;20056;-73
2022/11/25 03:04:07;;;;;;;21.75;13.02;;;;;;;4.20;100.00;99894.00;10405728;28;20093;-73
2022/11/25 03:09:09;;;;;;;11.55;10.40;;;;;;;4.10;100.00;99902.78;10416145;28;20071;-74
2022/11/25 03:14:12;;;;;;;13.35;10.35;;;;;;;4.11;100.00;99910.56;10417195;28;20092;-74
2022/11/25 03:19:15;;;;;;;15.50;11.23;;;;;;;4.02;100.00;99908.03;10398817;28;20075;-74
2022/11/25 03:24:17;;;;;;;12.18;11.05;;;;;;;3.95;100.00;99909.81;10400185;28;20065;-73
2022/11/25 03:29:21;;;;;;;13.35;12.05;;;;;;;3.89;100.00;99901.19;10415601;28;20065;-74
2022/11/25 03:34:23;;;;;;;20.65;11.95;;;;;;;3.94;100.00;99907.22;10398802;28;20053;-73
2022/11/25 03:39:25;;;;;;;14.05;12.82;;;;;;;3.86;100.00;99919.44;10415875;28;20049;-74
2022/11/25 03:44:27;;;;;;;14.20;12.82;;;;;;;3.82;100.00;99922.91;10417695;28;20518;-73
2022/11/25 03:49:29;;;;;;;17.40;13.90;;;;;;;3.80;100.00;99920.31;10399733;28;20048;-74
2022/11/25 03:54:30;;;;;;;17.13;13.30;;;;;;;3.90;100.00;99922.00;10397984;28;20133;-74
2022/11/25 03:59:53;;;;;;;19.02;15.73;;;;;;;3.81;100.00;99922.06;10397095;28;20041;-74
2022/11/25 04:04:55;;;;;;;14.38;13.05;;;;;;;4.00;100.00;99926.25;10399071;28;20103;-74
2022/11/25 04:09:57;;;;;;;15.48;13.93;;;;;;;3.87;100.00;99926.34;10397404;28;20041;-74
2022/11/25 04:15:03;;;;;;;21.50;14.52;;;;;;;3.77;100.00;99929.00;10397389;28;20063;-73
2022/11/25 04:20:06;;;;;;;17.15;14.27;;;;;;;3.70;100.00;99927.28;10413791;28;20429;-73
2022/11/25 04:25:08;;;;;;;16.15;14.57;;;;;;;3.73;100.00;99934.22;10397189;28;20076;-74
2022/11/25 04:30:11;;;;;;;17.73;14.95;;;;;;;3.74;100.00;99936.81;10398843;28;20072;-73
2022/11/25 04:35:15;;;;;;;16.55;13.35;;;;;;;3.68;100.00;99943.78;10397271;28;20063;-74
2022/11/25 04:40:22;;;;;;;15.75;13.38;;;;;;;3.65;100.00;99939.47;10418374;28;20046;-73
2022/11/25 04:45:33;;;;;;;17.52;15.43;;;;;;;3.59;100.00;99939.50;10404979;28;20057;-74
2022/11/25 04:50:55;;;;;;;14.65;13.25;;;;;;;3.59;100.00;99936.03;10405441;28;20107;-73
2022/11/25 04:55:57;;;;;;;14.00;12.82;;;;;;;3.58;100.00;99942.09;10403531;28;20054;-74
2022/11/25 05:00:59;;;;;;;14.57;12.75;;;;;;;3.48;100.00;99942.13;10403188;28;20042;-74
2022/11/25 05:06:08;;;;;;;12.73;11.57;;;;;;;3.56;100.00;99944.72;10422733;28;20403;-74
2022/11/25 05:11:11;;;;;;;17.92;13.77;;;;;;;3.27;100.00;99937.88;10405416;28;20459;-74
2022/11/25 05:16:13;;;;;;;13.00;9.40;;;;;;;3.24;100.00;99934.47;10403982;28;20050;-74
2022/11/25 05:21:15;;;;;;;16.10;9.32;;;;;;;3.26;100.00;99935.31;10403192;28;20048;-74
2022/11/25 05:26:18;;;;;;;9.05;7.22;;;;;;;3.20;100.00;99933.59;10403400;28;20053;-74
2022/11/25 05:31:23;;;;;;;11.68;8.40;;;;;;;3.16;100.00;99929.28;10422648;28;20132;-73
2022/11/25 05:36:27;;;;;;;8.60;7.35;;;;;;;2.87;100.00;99934.53;10420199;28;20411;-73
2022/11/25 05:41:29;;;;;;;11.07;8.35;;;;;;;2.84;100.00;99936.31;10419248;28;20052;-73
2022/11/25 05:46:32;;;;;;;11.40;8.02;;;;;;;2.86;100.00;99951.00;10420813;28;20049;-74
2022/11/25 05:51:34;;;;;;;8.38;7.47;;;;;;;2.53;100.00;99950.19;10401266;28;20049;-74
2022/11/25 05:56:38;;;;;;;14.75;10.18;;;;;;;2.50;100.00;99950.19;10402729;28;20079;-74
2022/11/25 06:01:58;;;;;;;10.68;9.10;;;;;;;2.31;100.00;99947.59;10419853;28;20076;-74
2022/11/25 06:07:00;;;;;;;11.25;8.70;;;;;;;2.28;100.00;99953.63;10402924;28;20049;-74
2022/11/25 06:12:03;;;;;;;16.83;10.30;;;;;;;2.53;100.00;99950.19;10418784;28;20084;-73
2022/11/25 06:17:08;;;;;;;11.00;8.77;;;;;;;2.09;100.00;99960.53;10404144;28;20050;-68
2022/11/25 06:22:19;;;;;;;11.20;9.88;;;;;;;2.02;100.00;99967.44;10400822;28;20042;-68
2022/11/25 06:27:21;;;;;;;11.70;10.52;;;;;;;1.78;100.00;99972.56;10418154;28;20065;-68
2022/11/25 06:32:23;;;;;;;15.77;11.40;;;;;;;1.90;100.00;99971.72;10416194;28;20053;-68
2022/11/25 06:37:35;;;;;;;13.82;12.00;;;;;;;1.62;100.00;99978.56;10399200;28;20054;-68
2022/11/25 06:42:38;;;;;;;15.20;13.43;;;;;;;1.64;100.00;99985.50;10417782;28;20124;-68
2022/11/25 06:47:39;;;;;;;13.25;11.93;;;;;;;1.82;100.00;99987.28;10398245;28;20446;-68
2022/11/25 06:52:41;;;;;;;13.80;12.40;;;;;;;1.67;100.00;99989.81;10398446;28;20095;-67
2022/11/25 06:57:44;;;;;;;15.15;11.77;;;;;;;1.45;100.00;99994.91;10416056;28;20057;-67
2022/11/25 07:02:46;;;;;;;15.48;13.88;;;;;;;1.51;100.00;100000.13;10399246;28;20069;-68
2022/11/25 07:07:49;;;;;;;18.13;14.93;;;;;;;1.69;100.00;100008.81;10416120;28;20065;-67
2022/11/25 07:12:51;;;;;;;16.40;13.02;;;;;;;1.68;100.00;100009.66;10416310;28;20572;-68
2022/11/25 07:17:52;;;;;;;15.00;13.57;;;;;;;1.64;100.00;100020.88;10416119;28;20056;-68
2022/11/25 07:22:54;;;;;;;15.07;13.18;;;;;;;1.51;100.00;100026.03;10415291;28;20073;-68
2022/11/25 07:27:56;;;;;;;18.98;12.57;;;;;;;1.64;100.00;100031.25;10416345;28;20415;-69
2022/11/25 07:32:57;;;;;;;23.48;14.63;;;;;;;1.85;100.00;100031.31;10415360;28;20037;-68
2022/11/25 07:37:59;;;;;;;21.38;12.35;;;;;;;2.16;100.00;100019.31;10397957;28;20053;-68
2022/11/25 07:43:01;;;;;;;12.45;11.05;;;;;;;2.12;100.00;100027.09;10415629;28;20368;-68
2022/11/25 07:48:02;;;;;;;18.10;11.05;;;;;;;2.19;100.00;100032.28;10417003;28;20491;-68
2022/11/25 07:53:04;;;;;;;19.45;11.60;;;;;;;2.47;100.00;100038.38;10414731;28;20048;-68
2022/11/25 07:58:06;;;;;;;11.38;10.25;;;;;;;2.46;100.00;100022.81;10415028;28;20045;-68
2022/11/25 08:03:07;;;;;;;15.60;10.95;;;;;;;2.48;100.00;100031.50;10415316;28;20051;-68
2022/11/25 08:08:09;;;;;;;21.10;10.60;;;;;;;2.52;100.00;100039.28;10416977;28;20054;-68
2022/11/25 08:13:11;;;;;;;15.20;11.57;;;;;;;2.60;100.00;100038.41;10416320;28;20517;-68
2022/11/25 08:18:13;;;;;;;11.65;10.13;;;;;;;2.60;100.00;100035.81;10422790;28;20045;-67
2022/11/25 08:23:14;;;;;;;14.85;9.95;;;;;;;2.68;100.00;100031.47;10422402;28;20403;-67
2022/11/25 08:28:16;;;;;;;9.38;8.48;;;;;;;3.00;100.00;100039.25;10422381;28;20044;-69
2022/11/25 08:33:18;;;;;;;10.27;7.22;;;;;;;3.00;100.00;100047.91;10423307;28;20051;-69
2022/11/25 08:38:20;;;;;;;8.70;7.80;;;;;;;3.10;100.00;100047.88;10422027;28;20406;-68
2022/11/25 08:43:22;;;;;;;8.48;7.78;;;;;;;2.93;100.00;100050.53;10420206;28;20044;-67
2022/11/25 08:48:29;;;;;;;10.48;9.38;;;;;;;2.93;100.00;100051.38;10420831;28;20041;-68
2022/11/25 08:53:31;;;;;;;11.10;9.93;;;;;;;3.04;100.00;100052.22;10421878;28;20037;-68
2022/11/25 08:58:34;;;;;;;9.85;8.88;;;;;;;2.92;100.00;100040.97;10420470;28;20103;-68
2022/11/25 09:03:42;;;;;;;11.35;9.25;;;;;;;3.09;100.00;100049.63;10420540;28;20095;-68
2022/11/25 09:08:45;;;;;;;11.38;10.20;;;;;;;3.12;100.00;100046.16;10420177;28;20041;-68
2022/11/25 09:13:47;;;;;;;9.93;8.93;;;;;;;3.39;100.00;100047.84;10422200;28;20041;-68
2022/11/25 09:18:49;;;;;;;10.02;8.65;;;;;;;3.29;100.00;100052.22;10420050;28;20041;-68
2022/11/25 09:23:56;;;;;;;10.35;8.82;;;;;;;3.65;100.00;100042.59;10417994;28;20518;-71
2022/11/25 09:28:58;;;;;;;9.20;8.32;;;;;;;3.67;100.00;100040.81;10402548;28;20053;-72
2022/11/25 09:34:00;;;;;;;9.43;8.60;;;;;;;3.59;100.00;100042.63;10420019;28;20117;-72
2022/11/25 09:39:02;;;;;;;10.57;9.50;;;;;;;3.69;100.00;100049.50;10420882;28;20046;-73
2022/11/25 09:50:11;;;;;;;10.63;9.02;;;;;;;3.77;100.00;100039.94;10419582;28;20120;-73
2022/11/25 09:55:18;;;;;;;12.25;8.98;;;;;;;3.73;100.00;100049.47;10418895;28;20045;-73
2022/11/25 10:00:20;;;;;;;10.53;9.47;;;;;;;3.76;100.00;100046.88;10420476;28;20041;-73
2022/11/25 10:05:34;;;;;;;9.60;8.70;;;;;;;4.28;100.00;100054.41;10419095;28;20046;-72
2022/11/25 10:10:44;;;;;;;10.18;9.20;;;;;;;4.44;100.00;100052.59;10419795;28;20076;-72
2022/11/25 10:15:49;;;;;;;10.90;9.82;;;;;;;4.62;100.00;100035.97;10418683;28;20076;-73
2022/11/25 10:20:52;;;;;;;10.40;9.38;;;;;;;4.94;100.00;100038.31;10419229;28;20431;-73
2022/11/25 10:25:59;;;;;;;11.23;10.13;;;;;;;4.84;100.00;100039.25;10418249;28;20453;-73
2022/11/25 10:31:19;;;;;;;10.30;9.30;;;;;;;4.92;100.00;100042.66;10418045;28;20494;-73
2022/11/25 10:36:29;;;;;;;15.90;12.88;;;;;;;5.09;100.00;100039.03;10416787;28;20111;-71
2022/11/25 10:41:56;;;;;;;10.70;9.68;;;;;;;5.61;100.00;100038.50;10418730;28;20423;-72
2022/11/25 10:47:22;;;;;;;11.30;10.23;;;;;;;5.45;100.00;100030.84;10407304;28;20542;-73
2022/11/25 10:52:29;;;;;;;12.25;9.43;;;;;;;6.46;100.00;100036.53;10417610;28;20041;-73
2022/11/25 10:57:31;;;;;;;9.18;8.18;;;;;;;8.20;89.44;100035.06;10417068;28;20041;-72
2022/11/25 11:02:40;;;;;;;8.70;7.20;;;;;;;9.22;81.62;100026.53;10418777;28;20052;-72
2022/11/25 11:07:44;;;;;;;9.18;8.20;;;;;;;10.46;80.98;100022.97;10400863;28;20042;-72
2022/11/25 11:13:00;;;;;;;8.73;7.90;;;;;;;12.03;67.66;100027.19;10418695;28;20033;-73
2022/11/25 11:18:22;;;;;;;7.65;6.32;;;;;;;12.94;64.35;100017.41;10399476;28;20056;-73
2022/11/25 11:23:26;;;;;;;7.63;6.68;;;;;;;12.81;60.50;100024.97;10416995;28;20041;-72
2022/11/25 11:28:34;;;;;;;7.55;6.55;;;;;;;12.09;68.45;100016.44;10420257;28;20388;-73
2022/11/25 11:33:50;;;;;;;8.43;6.30;;;;;;;12.07;65.57;100005.94;10419856;28;20120;-72
2022/11/25 11:39:14;;;;;;;7.50;6.80;;;;;;;11.45;66.82;99998.56;10419282;28;20041;-72
2022/11/25 11:44:53;;;;;;;12.75;8.35;;;;;;;10.76;69.68;100005.34;10410678;28;20057;-73
2022/11/25 11:50:13;;;;;;;7.95;7.15;;;;;;;10.47;70.95;100006.28;10426169;28;20095;-72
2022/11/25 11:55:31;;;;;;;10.20;7.05;;;;;;;10.07;75.32;100002.22;10408876;28;20041;-73
2022/11/25 12:00:45;;;;;;;8.77;7.97;;;;;;;9.49;77.46;99999.53;10427845;28;20053;-72
2022/11/25 12:05:53;;;;;;;9.32;8.20;;;;;;;8.58;85.46;99998.38;10426697;28;20049;-73
2022/11/25 12:11:12;;;;;;;9.95;9.02;;;;;;;8.58;87.10;99995.75;10427526;28;20045;-73
2022/11/25 12:16:23;;;;;;;10.38;9.45;;;;;;;8.71;85.51;99996.31;10426184;28;20395;-73
2022/11/25 12:21:43;;;;;;;13.38;9.20;;;;;;;8.69;85.66;99992.03;10423630;28;20049;-72
2022/11/25 12:27:04;;;;;;;9.27;8.38;;;;;;;8.37;89.55;99987.56;10408349;28;20453;-73
2022/11/25 12:32:22;;;;;;;10.35;8.65;;;;;;;8.36;89.26;99981.44;10427586;28;20037;-73
2022/11/25 12:37:35;;;;;;;9.65;8.55;;;;;;;8.53;85.39;99979.31;10424964;28;20112;-73
2022/11/25 12:42:40;;;;;;;8.40;7.65;;;;;;;8.33;87.87;99978.91;10424942;28;20033;-72
2022/11/25 12:47:43;;;;;;;8.80;7.90;;;;;;;8.19;91.44;99978.34;10422746;28;20414;-73
2022/11/25 12:53:07;;;;;;;8.50;7.68;;;;;;;8.22;90.97;99986.13;10426060;28;20095;-73
2022/11/25 12:58:12;;;;;;;8.60;7.78;;;;;;;8.23;90.99;99975.59;10496621;22;20490;-72
2022/11/25 13:03:35;;;;;;;11.90;7.90;;;;;;;8.19;91.86;99978.34;10507349;28;20040;-74
2022/11/25 13:08:55;;;;;;;7.07;6.32;;;;;;;8.30;89.10;99989.44;10487684;28;20056;-74
2022/11/25 13:14:20;;;;;;;8.15;6.75;;;;;;;8.40;86.21;99993.59;10506329;28;20432;-75
2022/11/25 13:19:23;;;;;;;8.52;7.72;;;;;;;8.32;87.27;100008.59;10477554;28;20057;-73
2022/11/25 13:24:38;;;;;;;8.32;6.72;;;;;;;8.30;86.54;100013.00;10505695;28;20041;-72
2022/11/25 13:29:43;;;;;;;9.13;7.88;;;;;;;8.08;89.81;100016.09;10502722;28;20040;-72
2022/11/25 13:34:44;;;;;;;8.68;7.25;;;;;;;8.01;90.69;100006.69;10504561;28;20045;-72
2022/11/25 13:39:46;;;;;;;8.45;7.65;;;;;;;8.05;90.40;100017.91;10503323;28;20049;-72
2022/11/25 13:44:51;;;;;;;9.82;7.90;;;;;;;7.87;90.86;100019.16;10502906;28;20044;-73
2022/11/25 13:49:57;;;;;;;11.82;10.02;;;;;;;7.67;92.72;100016.97;10503470;28;20076;-72
2022/11/25 13:55:04;;;;;;;16.65;13.40;;;;;;;7.57;94.98;100026.78;10485218;28;20460;-74
2022/11/25 14:00:18;;;;;;;20.33;11.35;;;;;;;7.60;95.34;100020.59;10503001;28;20045;-73
2022/11/25 14:05:35;;;;;;;13.05;11.07;;;;;;;7.72;95.84;100024.75;10501798;28;20471;-72
2022/11/25 14:10:44;;;;;;;11.65;10.55;;;;;;;7.68;92.87;100029.16;10501780;28;20040;-72
2022/11/25 14:16:21;;;;;;;11.95;10.82;;;;;;;7.48;95.34;100029.56;10484317;28;20045;-73
2022/11/25 14:21:49;;;;;;;12.70;11.38;;;;;;;7.04;97.64;100044.31;10477845;28;20375;-72
2022/11/25 14:26:52;;;;;;;12.70;11.43;;;;;;;6.84;100.00;100043.78;10501390;28;20045;-74
2022/11/25 14:32:00;;;;;;;12.23;11.18;;;;;;;6.73;100.00;100056.13;10500778;28;20040;-74
2022/11/25 14:37:14;;;;;;;11.88;10.77;;;;;;;6.92;100.00;100064.56;10501681;28;20044;-73
2022/11/25 14:42:20;;;;;;;14.50;11.52;;;;;;;6.99;98.75;100068.78;10501085;28;20047;-72
2022/11/25 14:47:28;;;;;;;19.33;12.65;;;;;;;6.87;99.14;100076.84;10482982;28;20052;-73
2022/11/25 14:52:36;;;;;;;15.77;11.80;;;;;;;6.61;100.00;100092.91;10482445;28;20056;-73
2022/11/25 14:57:42;;;;;;;14.70;13.35;;;;;;;6.15;100.00;100089.16;10482616;28;20052;-72
2022/11/25 15:03:03;;;;;;;14.33;12.90;;;;;;;6.31;100.00;100095.91;10501776;28;20041;-73
2022/11/25 15:08:09;;;;;;;15.32;13.77;;;;;;;6.05;100.00;100092.78;10483859;28;20080;-72
2022/11/25 15:13:31;;;;;;;15.55;14.02;;;;;;;5.88;100.00;100086.88;10482556;28;20044;-72
2022/11/25 15:18:34;;;;;;;17.50;15.45;;;;;;;6.07;100.00;100101.47;10501166;28;20084;-72
2022/11/25 15:23:36;;;;;;;16.85;15.35;;;;;;;5.74;100.00;100100.06;10502862;28;20040;-73
2022/11/25 15:28:38;;;;;;;17.42;15.68;;;;;;;5.44;100.00;100104.72;10502377;28;20041;-73
2022/11/25 15:33:41;;;;;;;19.58;16.15;;;;;;;5.38;100.00;100112.59;10478551;28;20048;-72
2022/11/25 15:38:45;;;;;;;19.08;16.85;;;;;;;5.25;100.00;100134.44;10511251;28;20497;-73
2022/11/25 15:43:51;;;;;;;24.75;16.75;;;;;;;5.25;100.00;100134.44;10522179;28;20079;-73
2022/11/25 15:48:58;;;;;;;20.20;17.65;;;;;;;5.36;100.00;100135.22;10531095;28;20048;-73
2022/11/25 15:54:04;;;;;;;27.02;19.02;;;;;;;5.22;100.00;100137.97;10483563;28;20052;-73
2022/11/25 15:59:44;;;;;;;19.88;17.80;;;;;;;5.24;100.00;100149.22;10501579;28;20129;-72
2022/11/25 16:04:46;;;;;;;21.95;18.70;;;;;;;5.05;100.00;100148.50;10502349;28;20059;-72
2022/11/25 16:09:51;;;;;;;27.02;18.67;;;;;;;5.20;100.00;100151.88;10525486;28;20059;-73
2022/11/25 16:14:53;;;;;;;24.50;19.20;;;;;;;5.17;100.00;100159.69;10542383;28;20098;-72
2022/11/25 16:19:55;;;;;;;22.42;17.52;;;;;;;5.61;100.00;100169.75;10541559;28;20048;-72
2022/11/25 16:24:57;;;;;;;20.70;18.58;;;;;;;5.33;100.00;100171.72;10542307;28;20036;-72
2022/11/25 16:30:04;;;;;;;27.65;19.60;;;;;;;5.03;100.00;100167.63;10543816;28;20048;-73
2022/11/25 16:35:14;;;;;;;30.80;20.63;;;;;;;4.91;100.00;100165.94;10528340;28;20043;-74
2022/11/25 16:40:17;;;;;;;30.15;21.85;;;;;;;4.89;100.00;100172.06;10522177;28;20068;-72
2022/11/25 16:45:22;;;;;;;22.17;20.08;;;;;;;4.86;100.00;100175.53;10509387;28;20124;-72
2022/11/25 16:50:24;;;;;;;27.13;21.05;;;;;;;5.02;100.00;100169.34;10490953;28;20052;-72
2022/11/25 16:55:26;;;;;;;23.83;20.98;;;;;;;5.00;100.00;100176.34;10489668;28;20045;-73
2022/11/25 17:00:28;;;;;;;27.73;21.10;;;;;;;5.34;100.00;100183.03;10473472;28;20048;-72
2022/11/25 17:05:30;;;;;;;31.73;22.63;;;;;;;5.20;100.00;100170.09;10489375;28;20123;-71
2022/11/25 17:10:32;;;;;;;29.75;21.60;;;;;;;4.86;100.00;100172.94;10488731;28;20051;-71
2022/11/25 17:15:36;;;;;;;27.02;21.42;;;;;;;4.76;100.00;100182.53;10506562;28;20127;-72
2022/11/25 17:20:38;;;;;;;41.15;23.15;;;;;;;4.73;100.00;100177.34;10505594;28;20123;-72
2022/11/25 17:25:48;;;;;;;26.75;21.15;;;;;;;5.09;100.00;100188.44;10488707;28;20058;-71
2022/11/25 17:30:49;;;;;;;25.52;21.92;;;;;;;4.79;100.00;100195.56;10506839;28;20049;-71
2022/11/25 17:35:51;;;;;;;28.63;21.98;;;;;;;4.69;100.00;100195.59;10506774;28;20044;-71
2022/11/25 17:40:53;;;;;;;31.98;22.30;;;;;;;4.65;100.00;100192.19;10524998;28;20082;-72
2022/11/25 17:45:55;;;;;;;27.08;22.13;;;;;;;4.74;100.00;100205.16;10546456;28;20045;-72
2022/11/25 17:50:57;;;;;;;27.25;22.98;;;;;;;4.64;100.00;100210.38;10546863;28;20497;-71
2022/11/25 17:56:28;;;;;;;24.85;22.02;;;;;;;4.80;100.00;100212.91;10547053;28;20044;-72
2022/11/25 18:01:30;;;;;;;;;;;;;;;4.96;100.00;100220.66;10539743;28;20047;-70
2022/11/25 18:06:33;;;;;;;27.38;20.83;;;;;;;4.81;100.00;100217.25;10531110;28;19920;-72
2022/11/25 18:11:36;;;;;;;26.02;20.30;;;;;;;4.98;100.00;100227.56;10532838;28;20515;-71
2022/11/25 18:16:41;;;;;;;35.75;22.17;;;;;;;4.87;100.00;100234.59;10549334;28;20078;-71
2022/11/25 18:21:43;;;;;;;26.77;20.75;;;;;;;5.00;100.00;100237.97;10530233;28;20464;-71
2022/11/25 18:26:49;;;;;;;26.90;21.48;;;;;;;4.87;100.00;100245.00;10548654;28;20047;-72
2022/11/25 18:31:54;;;;;;;25.10;21.67;;;;;;;5.12;100.00;100245.72;10547660;28;20040;-73
2022/11/25 18:36:56;;;;;;;29.85;22.35;;;;;;;5.06;100.00;100249.22;10511805;28;20052;-71
2022/11/25 18:41:58;;;;;;;30.38;22.58;;;;;;;5.06;100.00;100248.38;10510720;28;20048;-71
2022/11/25 18:47:00;;;;;;;29.20;21.52;;;;;;;5.01;100.00;100256.22;10508105;28;20109;-72
2022/11/25 18:52:02;;;;;;;30.13;23.02;;;;;;;5.08;100.00;100254.44;10503297;28;20040;-71
2022/11/25 18:57:04;;;;;;;29.33;23.77;;;;;;;4.86;100.00;100264.09;10501556;22;20041;-68
2022/11/25 19:02:14;;;;;;;26.00;22.08;;;;;;;4.81;100.00;100282.34;10458013;28;20568;-68
2022/11/25 19:07:16;;;;;;;33.28;23.52;;;;;;;4.79;100.00;100276.28;10442573;28;20052;-68
2022/11/25 19:12:19;;;;;;;31.30;24.23;;;;;;;4.84;100.00;100270.19;10458200;28;20478;-68
2022/11/25 19:17:23;;;;;;;37.50;25.58;;;;;;;5.05;100.00;100283.13;10437803;28;20049;-69
2022/11/25 19:22:24;;;;;;;29.80;23.33;;;;;;;5.01;100.00;100284.88;10417114;28;20033;-69
2022/11/25 19:27:27;;;;;;;35.40;24.48;;;;;;;5.17;100.00;100293.47;10401570;28;20125;-69
2022/11/25 19:32:30;;;;;;;36.10;25.52;;;;;;;4.97;100.00;100297.94;10398152;28;20049;-69
2022/11/25 19:37:32;;;;;;;35.72;24.83;;;;;;;4.87;100.00;100304.91;10415989;28;20045;-68
2022/11/25 19:42:34;;;;;;;36.00;24.65;;;;;;;4.83;100.00;100308.41;10447459;28;20045;-69
2022/11/25 19:47:36;;;;;;;35.80;24.83;;;;;;;4.89;100.00;100318.78;10458507;28;20045;-69
2022/11/25 19:52:39;;;;;;;33.70;24.05;;;;;;;5.05;100.00;100319.59;10457327;28;20132;-68
2022/11/25 19:57:41;;;;;;;37.97;26.60;;;;;;;5.09;100.00;100328.25;10438070;28;20051;-68
2022/11/25 20:02:45;;;;;;;24.58;18.77;;;;;;;5.19;100.00;100340.38;10456088;28;20391;-68
2022/11/25 20:07:49;;;;;;;16.48;14.93;;;;;;;5.69;100.00;100333.97;10456181;28;20048;-69
2022/11/25 20:12:53;;;;;;;21.58;11.70;;;;;;;5.80;100.00;100340.88;10448267;28;20044;-68
2022/11/25 20:17:59;;;;;;;13.30;11.90;;;;;;;6.03;100.00;100345.06;10463955;28;20044;-68
2022/11/25 20:23:02;;;;;;;11.88;10.75;;;;;;;6.21;100.00;100360.56;10446710;28;20041;-68
2022/11/25 20:28:17;;;;;;;12.55;11.25;;;;;;;6.65;100.00;100367.13;10464825;28;20049;-68
2022/11/25 20:33:22;;;;;;;11.50;10.40;;;;;;;6.69;100.00;100371.44;10431381;28;20051;-68
2022/11/25 20:38:28;;;;;;;10.60;9.48;;;;;;;6.71;100.00;100377.47;10465213;28;20123;-69
2022/11/25 20:43:33;;;;;;;11.15;10.10;;;;;;;6.82;100.00;100388.69;10463856;28;20041;-69
2022/11/25 20:48:36;;;;;;;10.07;9.30;;;;;;;7.01;100.00;100388.50;10446827;28;20056;-69
2022/11/25 20:53:42;;;;;;;14.30;9.48;;;;;;;7.07;100.00;100396.25;10448054;28;20052;-67
2022/11/25 20:58:45;;;;;;;10.68;9.77;;;;;;;7.19;100.00;100400.47;10464276;28;20037;-69
2022/11/25 21:03:49;;;;;;;11.38;10.30;;;;;;;6.96;100.00;100406.84;10464210;28;20048;-67
2022/11/25 21:08:52;;;;;;;12.30;10.90;;;;;;;7.09;100.00;100412.78;10462725;28;20041;-68
2022/11/25 21:13:54;;;;;;;16.48;11.75;;;;;;;7.08;100.00;100417.16;10445403;28;20064;-68
2022/11/25 21:18:56;;;;;;;12.43;11.23;;;;;;;6.94;100.00;100426.88;10463078;28;20490;-68
2022/11/25 21:24:05;;;;;;;15.15;13.15;;;;;;;6.88;100.00;100433.94;10463378;28;20471;-68
2022/11/25 21:29:14;;;;;;;13.02;11.93;;;;;;;6.65;100.00;100426.34;10464717;28;20041;-68
2022/11/25 21:34:16;;;;;;;14.88;13.40;;;;;;;6.94;100.00;100442.56;10461430;28;20502;-68
2022/11/25 21:39:17;;;;;;;17.27;13.18;;;;;;;6.78;100.00;100443.63;10462832;28;20127;-68
2022/11/25 21:44:36;;;;;;;15.68;13.40;;;;;;;6.76;100.00;100454.06;10461295;28;20415;-68
2022/11/25 21:49:38;;;;;;;14.82;13.43;;;;;;;6.64;100.00;100456.81;10462309;28;20052;-68
2022/11/25 21:54:40;;;;;;;14.40;13.00;;;;;;;6.70;100.00;100459.34;10444814;28;20052;-68
2022/11/25 21:59:45;;;;;;;14.77;13.15;;;;;;;6.93;100.00;100476.56;10462047;28;20044;-68
2022/11/25 22:04:47;;;;;;;13.40;12.20;;;;;;;6.50;100.00;100474.31;10460795;28;20099;-68
2022/11/25 22:09:48;;;;;;;14.48;12.98;;;;;;;6.39;100.00;100481.41;10442502;28;20037;-68
2022/11/25 22:14:50;;;;;;;16.10;14.60;;;;;;;6.25;100.00;100478.88;10461081;28;20040;-67
2022/11/25 22:19:52;;;;;;;15.65;14.05;;;;;;;6.29;100.00;100478.00;10462895;28;20049;-67
2022/11/25 22:24:54;;;;;;;17.17;15.63;;;;;;;6.22;100.00;100489.34;10461638;28;20051;-67
2022/11/25 22:29:56;;;;;;;14.63;13.18;;;;;;;6.41;100.00;100496.16;10462434;28;20410;-68
2022/11/25 22:34:58;;;;;;;16.77;13.60;;;;;;;6.55;100.00;100496.94;10444109;28;20399;-68
2022/11/25 22:39:59;;;;;;;15.60;14.05;;;;;;;6.81;100.00;100498.44;10459593;28;20044;-67
2022/11/25 22:45:04;;;;;;;20.00;14.75;;;;;;;6.90;100.00;100503.56;10460997;28;20037;-67
2022/11/25 22:50:17;;;;;;;12.05;11.00;;;;;;;6.94;100.00;100510.50;10442976;28;20397;-68
2022/11/25 22:55:26;;;;;;;10.48;9.45;;;;;;;6.98;100.00;100517.44;10441889;28;20079;-68
2022/11/25 23:00:48;;;;;;;11.10;10.20;;;;;;;6.92;100.00;100525.34;10441409;28;20044;-68
2022/11/25 23:05:51;;;;;;;12.13;11.02;;;;;;;6.87;100.00;100524.53;10461355;28;20490;-67
2022/11/25 23:10:54;;;;;;;12.45;11.23;;;;;;;6.83;100.00;100525.44;10441650;28;20056;-67
2022/11/25 23:15:58;;;;;;;12.75;11.75;;;;;;;6.86;100.00;100527.13;10461001;28;20493;-67